createdAt,value
2019-03-23T00:01:59.948Z,102747.61
2019-03-23T00:04:32.438Z,102740.23
2019-03-23T00:07:04.827Z,102740.01
2019-03-23T00:09:37.113Z,102739.29
2019-03-23T00:12:09.880Z,102728.91
2019-03-23T00:14:42.119Z,102738.64
2019-03-23T00:17:14.399Z,102732.59
2019-03-23T00:19:46.613Z,102726.08
2019-03-23T00:22:18.880Z,102733.69
2019-03-23T00:24:51.116Z,102736.58
2019-03-23T00:27:23.431Z,102735.45
2019-03-23T00:29:55.730Z,102733.93
2019-03-23T00:32:28.305Z,102734.44
2019-03-23T00:35:00.594Z,102741.50
2019-03-23T00:37:33.090Z,102731.69
2019-03-23T00:40:05.504Z,102736.28
2019-03-23T00:42:37.829Z,102729.92
2019-03-23T00:45:10.502Z,102727.82
2019-03-23T00:47:43.025Z,102738.35
2019-03-23T00:50:15.291Z,102728.72
2019-03-23T00:52:47.639Z,102729.73
2019-03-23T00:55:20.170Z,102735.85
2019-03-23T00:57:52.411Z,102736.83
2019-03-23T01:00:24.878Z,102729.02
2019-03-23T01:02:57.173Z,102734.23
2019-03-23T01:05:30.494Z,102729.02
2019-03-23T01:08:02.720Z,102725.11
2019-03-23T01:10:35.067Z,102726.41
2019-03-23T01:13:07.522Z,102725.83
2019-03-23T01:15:39.795Z,102731.52
2019-03-23T01:18:12.213Z,102738.13
2019-03-23T01:20:49.499Z,102735.71
2019-03-23T01:23:18.564Z,102734.80
2019-03-23T01:25:50.821Z,102734.23
2019-03-23T01:28:23.314Z,102730.94
2019-03-23T01:30:55.608Z,102727.02
2019-03-23T01:33:27.894Z,102734.26
2019-03-23T01:36:00.318Z,102729.55
2019-03-23T01:38:32.657Z,102729.34
2019-03-23T01:41:04.894Z,102729.73
2019-03-23T01:43:37.130Z,102721.63
2019-03-23T01:46:09.340Z,102723.48
2019-03-23T01:48:41.551Z,102719.56
2019-03-23T01:51:13.932Z,102711.20
2019-03-23T01:53:46.298Z,102718.98
2019-03-23T01:56:18.562Z,102711.34
2019-03-23T01:58:50.797Z,102708.39
2019-03-23T02:01:23.058Z,102707.38
2019-03-23T02:03:55.268Z,102709.67
2019-03-23T02:06:27.668Z,102714.37
2019-03-23T02:09:00.059Z,102715.36
2019-03-23T02:11:32.366Z,102709.41
2019-03-23T02:14:04.617Z,102709.02
2019-03-23T02:16:36.869Z,102710.44
2019-03-23T02:19:09.159Z,102703.19
2019-03-23T02:21:42.545Z,102699.20
2019-03-23T02:24:14.833Z,102699.30
2019-03-23T02:26:47.132Z,102698.48
2019-03-23T02:29:19.381Z,102704.39
2019-03-23T02:31:51.718Z,102694.39
2019-03-23T02:34:24.035Z,102690.14
2019-03-23T02:36:56.412Z,102698.84
2019-03-23T02:39:28.692Z,102694.62
2019-03-23T02:42:01.091Z,102698.13
2019-03-23T02:44:33.480Z,102700.59
2019-03-23T02:47:05.748Z,102696.81
2019-03-23T02:49:38.131Z,102708.19
2019-03-23T02:52:10.360Z,102712.78
2019-03-23T02:54:42.633Z,102703.09
2019-03-23T02:57:14.879Z,102709.34
2019-03-23T02:59:49.303Z,102712.26
2019-03-23T03:02:21.585Z,102712.84
2019-03-23T03:04:53.814Z,102709.73
2019-03-23T03:07:26.127Z,102713.15
2019-03-23T03:09:58.292Z,102712.23
2019-03-23T03:12:30.563Z,102716.33
2019-03-23T03:15:03.038Z,102722.30
2019-03-23T03:17:36.348Z,102722.41
2019-03-23T03:20:08.699Z,102736.45
2019-03-23T03:22:40.754Z,102735.25
2019-03-23T03:25:13.051Z,102735.05
2019-03-23T03:27:45.315Z,102729.84
2019-03-23T03:30:17.589Z,102739.13
2019-03-23T03:32:50.038Z,102740.99
2019-03-23T03:35:22.408Z,102748.66
2019-03-23T03:37:57.026Z,102745.16
2019-03-23T03:40:28.716Z,102751.47
2019-03-23T03:43:00.971Z,102753.82
2019-03-23T03:45:33.190Z,102747.86
2019-03-23T03:48:05.440Z,102755.98
2019-03-23T03:50:38.061Z,102756.23
2019-03-23T03:53:10.284Z,102757.30
2019-03-23T03:55:42.567Z,102758.87
2019-03-23T03:58:14.845Z,102759.11
2019-03-23T04:00:48.138Z,102760.70
2019-03-23T04:03:20.410Z,102757.30
2019-03-23T04:05:52.868Z,102756.44
2019-03-23T04:08:25.107Z,102765.73
2019-03-23T04:10:57.573Z,102762.63
2019-03-23T04:13:29.781Z,102762.02
2019-03-23T04:16:01.868Z,102765.73
2019-03-23T04:18:34.157Z,102765.02
2019-03-23T04:21:06.599Z,102765.02
2019-03-23T04:23:38.885Z,102772.03
2019-03-23T04:26:11.083Z,102767.62
2019-03-23T04:28:43.343Z,102769.55
2019-03-23T04:31:15.579Z,102775.34
2019-03-23T04:33:47.862Z,102777.03
2019-03-23T04:36:20.128Z,102776.72
2019-03-23T04:38:54.683Z,102777.73
2019-03-23T04:41:27.949Z,102782.55
2019-03-23T04:44:00.275Z,102783.53
2019-03-23T04:46:32.545Z,102790.34
2019-03-23T04:49:04.743Z,102789.64
2019-03-23T04:51:37.091Z,102788.84
2019-03-23T04:54:09.514Z,102795.55
2019-03-23T04:56:42.045Z,102793.13
2019-03-23T04:59:14.292Z,102798.84
2019-03-23T05:01:46.502Z,102795.02
2019-03-23T05:04:18.864Z,102804.56
2019-03-23T05:06:51.317Z,102812.06
2019-03-23T05:09:23.578Z,102816.95
2019-03-23T05:11:58.229Z,102814.14
2019-03-23T05:14:30.503Z,102817.66
2019-03-23T05:17:02.714Z,102824.36
2019-03-23T05:19:34.936Z,102823.56
2019-03-23T05:22:07.292Z,102825.38
2019-03-23T05:24:39.561Z,102826.87
2019-03-23T05:27:11.778Z,102827.85
2019-03-23T05:29:44.049Z,102829.66
2019-03-23T05:32:16.276Z,102832.78
2019-03-23T05:34:48.493Z,102827.57
2019-03-23T05:37:21.176Z,102829.86
2019-03-23T05:39:53.405Z,102829.06
2019-03-23T05:42:25.654Z,102829.25
2019-03-23T05:44:57.963Z,102831.06
2019-03-23T05:47:30.236Z,102829.63
2019-03-23T05:50:02.813Z,102826.75
2019-03-23T05:52:35.249Z,102825.45
2019-03-23T05:55:07.477Z,102826.03
2019-03-23T05:57:39.732Z,102832.33
2019-03-23T06:00:13.153Z,102829.52
2019-03-23T06:02:45.401Z,102831.41
2019-03-23T06:05:17.601Z,102829.71
2019-03-23T06:07:49.858Z,102833.41
2019-03-23T06:10:23.699Z,102838.52
2019-03-23T06:12:55.982Z,102840.62
2019-03-23T06:15:28.379Z,102840.73
2019-03-23T06:18:00.735Z,102835.20
2019-03-23T06:20:33.022Z,102831.40
2019-03-23T06:23:05.335Z,102827.49
2019-03-23T06:25:37.560Z,102836.29
2019-03-23T06:28:09.842Z,102840.59
2019-03-23T06:30:42.144Z,102844.62
2019-03-23T06:33:15.568Z,102845.71
2019-03-23T06:35:49.112Z,102842.57
2019-03-23T06:38:21.454Z,102841.45
2019-03-23T06:40:53.751Z,102840.33
2019-03-23T06:43:26.000Z,102837.73
2019-03-23T06:45:58.259Z,102847.55
2019-03-23T06:48:30.484Z,102852.66
2019-03-23T06:51:03.416Z,102861.38
2019-03-23T06:53:35.860Z,102853.60
2019-03-23T06:56:08.383Z,102852.52
2019-03-23T06:58:40.450Z,102855.48
2019-03-23T07:01:12.726Z,102859.47
2019-03-23T07:03:46.092Z,102864.33
2019-03-23T07:06:18.392Z,102865.41
2019-03-23T07:08:50.653Z,102864.00
2019-03-23T07:11:22.880Z,102866.28
2019-03-23T07:13:55.182Z,102866.56
2019-03-23T07:16:27.446Z,102862.43
2019-03-23T07:18:59.720Z,102864.81
2019-03-23T07:21:31.992Z,102862.89
2019-03-23T07:24:04.502Z,102869.37
2019-03-23T07:26:37.161Z,102872.16
2019-03-23T07:29:10.661Z,102878.05
2019-03-23T07:31:42.922Z,102878.13
2019-03-23T07:34:15.296Z,102879.41
2019-03-23T07:36:47.612Z,102882.59
2019-03-23T07:39:27.271Z,102882.67
2019-03-23T07:41:54.442Z,102889.08
2019-03-23T07:44:27.386Z,102887.37
2019-03-23T07:46:59.738Z,102899.64
2019-03-23T07:49:32.360Z,102902.58
2019-03-23T07:52:04.443Z,102910.74
2019-03-23T07:54:36.770Z,102910.35
2019-03-23T07:57:09.396Z,102904.44
2019-03-23T07:59:42.003Z,102905.92
2019-03-23T08:02:14.311Z,102906.55
2019-03-23T08:04:47.057Z,102900.65
2019-03-23T08:07:19.410Z,102903.71
2019-03-23T08:09:51.906Z,102908.83
2019-03-23T08:12:24.133Z,102916.66
2019-03-23T08:14:56.381Z,102916.49
2019-03-23T08:17:30.310Z,102919.88
2019-03-23T08:20:02.580Z,102927.14
2019-03-23T08:22:34.814Z,102919.22
2019-03-23T08:25:07.120Z,102928.42
2019-03-23T08:27:41.595Z,102928.77
2019-03-23T08:30:13.499Z,102924.84
2019-03-23T08:32:46.443Z,102933.70
2019-03-23T08:35:20.802Z,102929.66
2019-03-23T08:37:52.998Z,102929.31
2019-03-23T08:40:25.506Z,102935.97
2019-03-23T08:42:57.994Z,102943.58
2019-03-23T08:45:30.772Z,102946.97
2019-03-23T08:48:03.179Z,102947.30
2019-03-23T08:50:37.601Z,102947.83
2019-03-23T08:53:10.348Z,102943.36
2019-03-23T08:55:42.841Z,102943.97
2019-03-23T08:58:15.653Z,102941.38
2019-03-23T09:00:48.257Z,102938.36
2019-03-23T09:03:20.588Z,102941.02
2019-03-23T09:05:52.947Z,102942.95
2019-03-23T09:08:25.405Z,102934.87
2019-03-23T09:11:00.193Z,102938.90
2019-03-23T09:13:40.632Z,102941.11
2019-03-23T09:16:09.623Z,102948.48
2019-03-23T09:18:41.984Z,102966.62
2019-03-23T09:21:14.612Z,102960.45
2019-03-23T09:23:49.244Z,102957.59
2019-03-23T09:26:21.724Z,102954.16
2019-03-23T09:28:54.459Z,102948.45
2019-03-23T09:31:29.442Z,102938.95
2019-03-23T09:34:01.752Z,102950.59
2019-03-23T09:36:34.017Z,102950.69
2019-03-23T09:39:06.372Z,102955.83
2019-03-23T09:41:39.124Z,102946.81
2019-03-23T09:44:11.393Z,102949.88
2019-03-23T09:46:43.889Z,102965.42
2019-03-23T09:49:16.368Z,102959.11
2019-03-23T09:51:48.675Z,102963.48
2019-03-23T09:54:21.168Z,102966.03
2019-03-23T09:56:53.497Z,102969.20
2019-03-23T09:59:25.878Z,102965.64
2019-03-23T10:01:58.309Z,102972.91
2019-03-23T10:04:30.558Z,102977.11
2019-03-23T10:07:03.981Z,102975.83
2019-03-23T10:09:36.335Z,102967.05
2019-03-23T10:12:08.700Z,102962.16
2019-03-23T10:14:41.070Z,102959.77
2019-03-23T10:17:13.163Z,102966.72
2019-03-23T10:19:45.730Z,102966.06
2019-03-23T10:22:18.441Z,102965.82
2019-03-23T10:24:50.941Z,102987.33
2019-03-23T10:27:23.215Z,102979.21
2019-03-23T10:29:55.999Z,102969.95
2019-03-23T10:32:28.385Z,102987.74
2019-03-23T10:35:00.624Z,102997.50
2019-03-23T10:37:33.065Z,103000.71
2019-03-23T10:40:07.519Z,102991.23
2019-03-23T10:42:39.543Z,102994.36
2019-03-23T10:45:11.904Z,102990.33
2019-03-23T10:47:44.462Z,102995.00
2019-03-23T10:50:17.079Z,102994.75
2019-03-23T10:52:49.444Z,102997.97
2019-03-23T10:55:21.787Z,102994.02
2019-03-23T10:57:54.396Z,102994.66
2019-03-23T11:00:27.461Z,102989.00
2019-03-23T11:03:00.300Z,103003.77
2019-03-23T11:05:32.666Z,103003.73
2019-03-23T11:08:04.966Z,103007.14
2019-03-23T11:10:41.794Z,103005.83
2019-03-23T11:13:11.708Z,103004.42
2019-03-23T11:15:44.423Z,103000.00
2019-03-23T11:18:16.793Z,103008.27
2019-03-23T11:20:49.545Z,103004.92
2019-03-23T11:23:21.970Z,103008.59
2019-03-23T11:25:54.911Z,103014.61
2019-03-23T11:28:27.204Z,103018.39
2019-03-23T11:30:59.821Z,103021.83
2019-03-23T11:33:32.145Z,103025.09
2019-03-23T11:36:04.596Z,103027.98
2019-03-23T11:38:36.971Z,103032.31
2019-03-23T11:41:09.415Z,103034.94
2019-03-23T11:43:42.247Z,103035.75
2019-03-23T11:46:16.907Z,103039.78
2019-03-23T11:48:49.175Z,103040.08
2019-03-23T11:51:21.987Z,103038.31
2019-03-23T11:53:54.301Z,103042.22
2019-03-23T11:56:30.607Z,103041.16
2019-03-23T11:59:00.988Z,103045.91
2019-03-23T12:01:33.574Z,103042.82
2019-03-23T12:04:05.910Z,103044.19
2019-03-23T12:06:38.171Z,103049.77
2019-03-23T12:09:10.886Z,103053.84
2019-03-23T12:11:43.044Z,103063.83
2019-03-23T12:14:15.424Z,103057.94
2019-03-23T12:16:47.849Z,103060.41
2019-03-23T12:19:20.208Z,103061.92
2019-03-23T12:21:52.748Z,103071.88
2019-03-23T12:24:25.259Z,103063.31
2019-03-23T12:26:57.899Z,103060.77
2019-03-23T12:29:30.222Z,103068.62
2019-03-23T12:32:02.576Z,103067.58
2019-03-23T12:34:34.813Z,103067.64
2019-03-23T12:37:07.128Z,103070.61
2019-03-23T12:39:39.589Z,103066.95
2019-03-23T12:42:11.922Z,103070.81
2019-03-23T12:44:44.458Z,103069.83
2019-03-23T12:47:16.892Z,103073.61
2019-03-23T12:49:49.159Z,103072.77
2019-03-23T12:52:21.496Z,103076.78
2019-03-23T12:54:54.032Z,103080.00
2019-03-23T12:57:26.567Z,103077.85
2019-03-23T12:59:58.955Z,103074.55
2019-03-23T13:02:31.508Z,103077.59
2019-03-23T13:05:04.160Z,103075.30
2019-03-23T13:07:36.525Z,103081.10
2019-03-23T13:10:08.951Z,103074.45
2019-03-23T13:12:41.083Z,103075.53
2019-03-23T13:15:13.553Z,103075.77
2019-03-23T13:17:46.867Z,103079.61
2019-03-23T13:20:19.325Z,103082.32
2019-03-23T13:22:51.887Z,103085.83
2019-03-23T13:25:24.573Z,103083.55
2019-03-23T13:27:57.107Z,103082.53
2019-03-23T13:30:29.484Z,103080.16
2019-03-23T13:33:02.038Z,103080.78
2019-03-23T13:35:34.374Z,103079.19
2019-03-23T13:38:06.764Z,103076.80
2019-03-23T13:40:39.441Z,103073.62
2019-03-23T13:43:11.798Z,103073.67
2019-03-23T13:45:45.039Z,103070.73
2019-03-23T13:48:18.062Z,103073.41
2019-03-23T13:50:50.970Z,103077.64
2019-03-23T13:53:23.329Z,103082.48
2019-03-23T13:55:55.575Z,103075.56
2019-03-23T13:58:28.438Z,103072.27
2019-03-23T14:01:01.231Z,103081.77
2019-03-23T14:03:33.546Z,103086.89
2019-03-23T14:06:07.779Z,103084.58
2019-03-23T14:08:40.208Z,103080.87
2019-03-23T14:11:12.752Z,103076.19
2019-03-23T14:13:44.859Z,103078.91
2019-03-23T14:16:17.569Z,103082.09
2019-03-23T14:18:50.088Z,103082.59
2019-03-23T14:21:22.403Z,103083.64
2019-03-23T14:23:55.273Z,103079.21
2019-03-23T14:26:27.646Z,103087.58
2019-03-23T14:28:59.911Z,103087.73
2019-03-23T14:31:32.348Z,103084.50
2019-03-23T14:34:05.023Z,103083.09
2019-03-23T14:36:37.522Z,103079.56
2019-03-23T14:39:09.883Z,103082.30
2019-03-23T14:41:42.244Z,103091.05
2019-03-23T14:44:14.556Z,103084.28
2019-03-23T14:46:46.919Z,103099.09
2019-03-23T14:49:19.366Z,103100.13
2019-03-23T14:51:51.967Z,103092.45
2019-03-23T14:54:24.340Z,103093.58
2019-03-23T14:56:57.376Z,103103.50
2019-03-23T14:59:29.615Z,103103.73
2019-03-23T15:02:01.983Z,103109.36
2019-03-23T15:04:34.629Z,103107.06
2019-03-23T15:07:07.539Z,103103.66
2019-03-23T15:09:39.857Z,103105.41
2019-03-23T15:12:15.277Z,103106.84
2019-03-23T15:14:46.162Z,103108.08
2019-03-23T15:17:18.540Z,103104.14
2019-03-23T15:19:50.857Z,103113.34
2019-03-23T15:22:23.145Z,103105.21
2019-03-23T15:24:55.445Z,103111.20
2019-03-23T15:27:27.777Z,103115.78
2019-03-23T15:30:00.292Z,103115.17
2019-03-23T15:32:33.774Z,103109.94
2019-03-23T15:35:06.242Z,103108.44
2019-03-23T15:37:40.519Z,103115.88
2019-03-23T15:40:12.834Z,103114.98
2019-03-23T15:42:45.182Z,103119.73
2019-03-23T15:45:18.088Z,103118.90
2019-03-23T15:47:50.700Z,103125.32
2019-03-23T15:50:23.012Z,103127.09
2019-03-23T15:52:55.952Z,103129.70
2019-03-23T15:55:28.350Z,103121.23
2019-03-23T15:58:00.804Z,103120.93
2019-03-23T16:00:32.990Z,103121.97
2019-03-23T16:03:05.263Z,103120.40
2019-03-23T16:05:37.586Z,103116.70
2019-03-23T16:08:10.011Z,103114.61
2019-03-23T16:10:49.439Z,103120.27
2019-03-23T16:13:25.541Z,103117.17
2019-03-23T16:15:58.335Z,103118.69
2019-03-23T16:18:30.673Z,103111.33
2019-03-23T16:21:03.122Z,103120.31
2019-03-23T16:23:35.501Z,103115.05
2019-03-23T16:26:07.873Z,103122.03
2019-03-23T16:28:40.417Z,103122.94
2019-03-23T16:31:12.730Z,103126.27
2019-03-23T16:33:45.069Z,103120.48
2019-03-23T16:36:17.325Z,103125.41
2019-03-23T16:38:49.569Z,103125.69
2019-03-23T16:41:21.841Z,103122.31
2019-03-23T16:43:54.099Z,103119.80
2019-03-23T16:46:26.410Z,103108.92
2019-03-23T16:49:00.324Z,103119.12
2019-03-23T16:51:32.724Z,103119.22
2019-03-23T16:54:05.944Z,103116.22
2019-03-23T16:56:39.138Z,103115.22
2019-03-23T16:59:11.487Z,103115.20
2019-03-23T17:01:43.784Z,103116.33
2019-03-23T17:04:15.924Z,103118.06
2019-03-23T17:06:48.398Z,103115.72
2019-03-23T17:09:20.974Z,103117.32
2019-03-23T17:11:53.170Z,103112.86
2019-03-23T17:14:25.716Z,103111.08
2019-03-23T17:17:00.203Z,103111.72
2019-03-23T17:19:32.098Z,103116.30
2019-03-23T17:22:04.426Z,103116.15
2019-03-23T17:24:36.674Z,103111.77
2019-03-23T17:27:09.018Z,103106.78
2019-03-23T17:29:41.476Z,103112.48
2019-03-23T17:32:14.167Z,103110.95
2019-03-23T17:34:46.547Z,103114.87
2019-03-23T17:37:18.853Z,103117.67
2019-03-23T17:39:51.175Z,103111.03
2019-03-23T17:42:23.721Z,103117.22
2019-03-23T17:44:55.965Z,103117.91
2019-03-23T17:47:28.249Z,103116.75
2019-03-23T17:50:00.482Z,103119.14
2019-03-23T17:52:32.778Z,103122.03
2019-03-23T17:55:05.098Z,103119.67
2019-03-23T17:57:37.385Z,103120.80
2019-03-23T18:00:09.716Z,103135.67
2019-03-23T18:02:43.114Z,103133.22
2019-03-23T18:05:15.815Z,103131.36
2019-03-23T18:07:47.951Z,103137.73
2019-03-23T18:10:20.298Z,103135.24
2019-03-23T18:12:52.526Z,103139.74
2019-03-23T18:15:24.835Z,103142.17
2019-03-23T18:17:57.073Z,103145.95
2019-03-23T18:20:29.555Z,103148.72
2019-03-23T18:23:01.797Z,103146.08
2019-03-23T18:25:34.015Z,103158.34
2019-03-23T18:28:06.436Z,103157.59
2019-03-23T18:30:38.800Z,103157.24
2019-03-23T18:33:11.278Z,103162.78
2019-03-23T18:35:43.509Z,103162.72
2019-03-23T18:38:15.754Z,103156.95
2019-03-23T18:40:47.990Z,103161.27
2019-03-23T18:43:27.517Z,103163.33
2019-03-23T18:45:55.415Z,103169.17
2019-03-23T18:48:27.587Z,103165.43
2019-03-23T18:51:00.714Z,103169.01
2019-03-23T18:53:33.049Z,103173.68
2019-03-23T18:56:05.638Z,103166.83
2019-03-23T18:58:38.190Z,103174.84
2019-03-23T19:01:10.454Z,103184.31
2019-03-23T19:03:42.725Z,103183.57
2019-03-23T19:06:15.095Z,103177.85
2019-03-23T19:08:47.398Z,103190.08
2019-03-23T19:11:19.886Z,103183.34
2019-03-23T19:13:52.177Z,103179.31
2019-03-23T19:16:24.514Z,103183.88
2019-03-23T19:18:56.874Z,103195.18
2019-03-23T19:21:29.130Z,103193.52
2019-03-23T19:24:01.394Z,103185.36
2019-03-23T19:26:33.738Z,103182.30
2019-03-23T19:29:05.981Z,103195.82
2019-03-23T19:31:38.265Z,103191.55
2019-03-23T19:34:10.540Z,103199.63
2019-03-23T19:36:42.804Z,103199.16
2019-03-23T19:39:15.033Z,103198.53
2019-03-23T19:41:47.356Z,103202.44
2019-03-23T19:44:19.616Z,103200.63
2019-03-23T19:46:53.024Z,103211.05
2019-03-23T19:49:25.266Z,103196.92
2019-03-23T19:51:57.560Z,103198.23
2019-03-23T19:54:30.001Z,103196.84
2019-03-23T19:57:02.365Z,103201.11
2019-03-23T19:59:34.632Z,103196.07
2019-03-23T20:02:06.906Z,103197.75
2019-03-23T20:04:39.145Z,103188.44
2019-03-23T20:07:11.471Z,103183.88
2019-03-23T20:09:43.751Z,103179.36
2019-03-23T20:12:17.830Z,103178.07
2019-03-23T20:14:50.796Z,103183.69
2019-03-23T20:17:23.137Z,103182.30
2019-03-23T20:19:55.667Z,103182.02
2019-03-23T20:22:28.453Z,103176.48
2019-03-23T20:25:01.052Z,103182.97
2019-03-23T20:27:34.384Z,103183.50
2019-03-23T20:30:06.754Z,103182.48
2019-03-23T20:32:39.325Z,103180.66
2019-03-23T20:35:12.775Z,103173.27
2019-03-23T20:37:45.131Z,103176.25
2019-03-23T20:40:17.446Z,103170.05
2019-03-23T20:42:49.842Z,103166.16
2019-03-23T20:45:22.468Z,103169.42
2019-03-23T20:47:55.129Z,103156.60
2019-03-23T20:50:27.411Z,103160.88
2019-03-23T20:52:59.873Z,103158.56
2019-03-23T20:55:32.101Z,103167.14
2019-03-23T20:58:04.442Z,103162.34
2019-03-23T21:00:36.750Z,103163.02
2019-03-23T21:03:10.098Z,103163.15
2019-03-23T21:05:42.404Z,103170.67
2019-03-23T21:08:14.847Z,103167.45
2019-03-23T21:10:47.205Z,103163.70
2019-03-23T21:13:20.037Z,103160.72
2019-03-23T21:15:52.283Z,103168.11
2019-03-23T21:18:24.552Z,103163.84
2019-03-23T21:20:56.811Z,103160.20
2019-03-23T21:23:29.067Z,103157.50
2019-03-23T21:26:01.346Z,103160.72
2019-03-23T21:28:33.618Z,103159.31
2019-03-23T21:31:06.862Z,103159.94
2019-03-23T21:33:39.229Z,103163.19
2019-03-23T21:36:11.453Z,103160.49
2019-03-23T21:38:43.795Z,103156.32
2019-03-23T21:41:16.220Z,103159.19
2019-03-23T21:43:48.494Z,103163.17
2019-03-23T21:46:21.563Z,103160.72
2019-03-23T21:48:54.001Z,103157.10
2019-03-23T21:51:26.252Z,103164.34
2019-03-23T21:53:58.522Z,103162.00
2019-03-23T21:56:31.126Z,103160.83
2019-03-23T21:59:03.580Z,103156.08
2019-03-23T22:01:35.869Z,103157.50
2019-03-23T22:04:08.172Z,103155.28
2019-03-23T22:06:40.708Z,103150.38
2019-03-23T22:09:12.971Z,103145.71
2019-03-23T22:11:45.256Z,103144.03
2019-03-23T22:14:17.534Z,103136.89
2019-03-23T22:16:49.609Z,103135.88
2019-03-23T22:19:22.032Z,103137.82
2019-03-23T22:21:54.378Z,103130.19
2019-03-23T22:24:26.657Z,103134.20
2019-03-23T22:26:58.940Z,103125.27
2019-03-23T22:29:31.254Z,103135.47
2019-03-23T22:32:04.590Z,103133.03
2019-03-23T22:34:36.863Z,103133.80
2019-03-23T22:37:09.168Z,103144.27
2019-03-23T22:39:41.604Z,103146.22
2019-03-23T22:42:13.949Z,103140.38
2019-03-23T22:44:52.392Z,103135.32
2019-03-23T22:47:20.357Z,103136.89
2019-03-23T22:49:53.273Z,103130.69
2019-03-23T22:52:25.613Z,103132.88
2019-03-23T22:54:58.044Z,103136.09
2019-03-23T22:57:30.615Z,103138.58
2019-03-23T23:00:03.100Z,103120.70
2019-03-23T23:02:37.546Z,103115.66
2019-03-23T23:05:10.093Z,103117.87
2019-03-23T23:07:42.440Z,103112.70
2019-03-23T23:10:14.949Z,103115.52
2019-03-23T23:12:47.281Z,103114.12
2019-03-23T23:15:19.553Z,103113.59
2019-03-23T23:17:51.893Z,103117.20
2019-03-23T23:20:24.128Z,103113.84
2019-03-23T23:22:56.489Z,103117.95
2019-03-23T23:25:28.779Z,103115.36
2019-03-23T23:28:01.147Z,103119.66
2019-03-23T23:30:33.476Z,103115.63
2019-03-23T23:33:05.723Z,103111.22
2019-03-23T23:35:37.984Z,103115.10
2019-03-23T23:38:10.405Z,103116.28
2019-03-23T23:40:42.701Z,103111.49
2019-03-23T23:43:14.989Z,103112.41
2019-03-23T23:45:47.431Z,103114.58
2019-03-23T23:48:19.710Z,103113.94
2019-03-23T23:50:51.919Z,103113.79
2019-03-23T23:53:24.763Z,103116.27
2019-03-23T23:55:56.987Z,103127.89
2019-03-23T23:58:29.330Z,103123.48
